sensor_id;sensor_type;location;lat;lon;timestamp;P1;durP1;ratioP1;P2;durP2;ratioP2
9324;SDS011;4701;51.566;6.776;2023-07-29T05:14:02;3.60;;;3.27;;
9324;SDS011;4701;51.566;6.776;2023-07-29T05:17:06;3.13;;;2.70;;
9324;SDS011;4701;51.566;6.776;2023-07-29T05:20:08;3.10;;;2.80;;
9324;SDS011;4701;51.566;6.776;2023-07-29T05:23:10;4.67;;;2.43;;
9324;SDS011;4701;51.566;6.776;2023-07-29T05:26:12;2.90;;;2.60;;
9324;SDS011;4701;51.566;6.776;2023-07-29T05:29:15;3.43;;;2.97;;
9324;SDS011;4701;51.566;6.776;2023-07-29T05:32:16;2.97;;;2.60;;
9324;SDS011;4701;51.566;6.776;2023-07-29T05:35:18;3.17;;;2.70;;
9324;SDS011;4701;51.566;6.776;2023-07-29T05:38:19;2.53;;;2.33;;
9324;SDS011;4701;51.566;6.776;2023-07-29T05:41:21;3.77;;;2.00;;
9324;SDS011;4701;51.566;6.776;2023-07-29T05:44:24;2.40;;;2.20;;
9324;SDS011;4701;51.566;6.776;2023-07-29T05:47:25;2.20;;;2.00;;
9324;SDS011;4701;51.566;6.776;2023-07-29T05:50:27;3.60;;;2.30;;
9324;SDS011;4701;51.566;6.776;2023-07-29T05:53:29;3.77;;;1.87;;
9324;SDS011;4701;51.566;6.776;2023-07-29T05:56:30;2.33;;;2.00;;
9324;SDS011;4701;51.566;6.776;2023-07-29T05:59:33;4.30;;;2.57;;
9324;SDS011;4701;51.566;6.776;2023-07-29T06:02:35;3.23;;;2.00;;
9324;SDS011;4701;51.566;6.776;2023-07-29T06:05:37;2.93;;;2.20;;
9324;SDS011;4701;51.566;6.776;2023-07-29T06:08:38;3.30;;;2.30;;
9324;SDS011;4701;51.566;6.776;2023-07-29T06:11:40;4.10;;;2.50;;
9324;SDS011;4701;51.566;6.776;2023-07-29T06:14:43;2.40;;;2.20;;
9324;SDS011;4701;51.566;6.776;2023-07-29T06:17:44;4.07;;;2.60;;
9324;SDS011;4701;51.566;6.776;2023-07-29T06:20:46;2.57;;;2.37;;
9324;SDS011;4701;51.566;6.776;2023-07-29T06:23:47;2.40;;;2.20;;
9324;SDS011;4701;51.566;6.776;2023-07-29T06:26:49;5.60;;;2.90;;
9324;SDS011;4701;51.566;6.776;2023-07-29T06:29:52;2.60;;;2.20;;
9324;SDS011;4701;51.566;6.776;2023-07-29T06:32:53;2.77;;;2.57;;
9324;SDS011;4701;51.566;6.776;2023-07-29T06:35:55;2.73;;;2.30;;
9324;SDS011;4701;51.566;6.776;2023-07-29T06:38:57;4.03;;;2.07;;
9324;SDS011;4701;51.566;6.776;2023-07-29T06:41:59;2.60;;;2.20;;
9324;SDS011;4701;51.566;6.776;2023-07-29T06:45:02;3.73;;;2.03;;
9324;SDS011;4701;51.566;6.776;2023-07-29T06:48:04;4.40;;;1.93;;
9324;SDS011;4701;51.566;6.776;2023-07-29T06:51:06;2.43;;;2.07;;
9324;SDS011;4701;51.566;6.776;2023-07-29T06:54:07;1.97;;;1.60;;
9324;SDS011;4701;51.566;6.776;2023-07-29T06:57:09;3.87;;;2.13;;
9324;SDS011;4701;51.566;6.776;2023-07-29T07:00:12;2.40;;;2.20;;
9324;SDS011;4701;51.566;6.776;2023-07-29T07:03:14;2.93;;;2.10;;
9324;SDS011;4701;51.566;6.776;2023-07-29T07:06:15;3.90;;;2.20;;
9324;SDS011;4701;51.566;6.776;2023-07-29T07:09:17;4.23;;;2.50;;
9324;SDS011;4701;51.566;6.776;2023-07-29T07:12:19;2.37;;;2.00;;
9324;SDS011;4701;51.566;6.776;2023-07-29T07:15:22;2.17;;;1.93;;
9324;SDS011;4701;51.566;6.776;2023-07-29T07:18:23;2.10;;;1.87;;
9324;SDS011;4701;51.566;6.776;2023-07-29T07:21:25;2.60;;;2.07;;
9324;SDS011;4701;51.566;6.776;2023-07-29T07:24:27;3.50;;;2.00;;
9324;SDS011;4701;51.566;6.776;2023-07-29T07:27:29;2.93;;;2.00;;
9324;SDS011;4701;51.566;6.776;2023-07-29T07:30:32;2.93;;;2.00;;
9324;SDS011;4701;51.566;6.776;2023-07-29T07:33:33;2.30;;;1.90;;
9324;SDS011;4701;51.566;6.776;2023-07-29T07:36:35;4.47;;;3.47;;
9324;SDS011;4701;51.566;6.776;2023-07-29T07:39:36;4.80;;;2.97;;
9324;SDS011;4701;51.566;6.776;2023-07-29T07:42:38;2.23;;;2.03;;
9324;SDS011;4701;51.566;6.776;2023-07-29T07:45:41;3.13;;;1.70;;
9324;SDS011;4701;51.566;6.776;2023-07-29T07:48:43;1.90;;;1.80;;
9324;SDS011;4701;51.566;6.776;2023-07-29T07:51:45;3.93;;;2.13;;
9324;SDS011;4701;51.566;6.776;2023-07-29T07:54:51;1.80;;;1.60;;
9324;SDS011;4701;51.566;6.776;2023-07-29T07:57:53;2.07;;;1.80;;
9324;SDS011;4701;51.566;6.776;2023-07-29T08:01:01;1.83;;;1.73;;
9324;SDS011;4701;51.566;6.776;2023-07-29T08:04:04;2.00;;;1.80;;
9324;SDS011;4701;51.566;6.776;2023-07-29T08:07:06;1.93;;;1.77;;
9324;SDS011;4701;51.566;6.776;2023-07-29T08:10:07;1.80;;;1.57;;
9324;SDS011;4701;51.566;6.776;2023-07-29T08:13:09;3.63;;;1.70;;
9324;SDS011;4701;51.566;6.776;2023-07-29T08:16:12;2.43;;;1.80;;
9324;SDS011;4701;51.566;6.776;2023-07-29T08:19:14;1.90;;;1.60;;
9324;SDS011;4701;51.566;6.776;2023-07-29T08:22:15;2.13;;;1.90;;
9324;SDS011;4701;51.566;6.776;2023-07-29T08:25:18;2.17;;;1.40;;
9324;SDS011;4701;51.566;6.776;2023-07-29T08:28:19;1.70;;;1.37;;
9324;SDS011;4701;51.566;6.776;2023-07-29T08:31:22;2.70;;;1.50;;
9324;SDS011;4701;51.566;6.776;2023-07-29T08:34:24;1.63;;;1.43;;
9324;SDS011;4701;51.566;6.776;2023-07-29T08:37:25;2.40;;;1.43;;
9324;SDS011;4701;51.566;6.776;2023-07-29T08:40:28;1.30;;;1.20;;
9324;SDS011;4701;51.566;6.776;2023-07-29T08:43:31;1.33;;;1.23;;
9324;SDS011;4701;51.566;6.776;2023-07-29T08:46:35;1.60;;;1.37;;
9324;SDS011;4701;51.566;6.776;2023-07-29T08:49:37;1.40;;;1.23;;
9324;SDS011;4701;51.566;6.776;2023-07-29T08:52:39;1.77;;;1.40;;
9324;SDS011;4701;51.566;6.776;2023-07-29T08:55:42;1.60;;;1.50;;
9324;SDS011;4701;51.566;6.776;2023-07-29T08:58:44;1.90;;;1.20;;
